sensor_id;sensor_type;location;lat;lon;timestamp;pressure;altitude;pressure_sealevel;temperature;humidity
63568;BME280;49715;42.386;20.434;2022-12-18T00:01:04;98149.97;;;7.03;72.68
63568;BME280;49715;42.386;20.434;2022-12-18T00:03:35;98162.16;;;7.04;72.66
63568;BME280;49715;42.386;20.434;2022-12-18T00:06:02;98164.53;;;7.07;72.63
63568;BME280;49715;42.386;20.434;2022-12-18T00:08:28;98157.13;;;7.01;72.53
63568;BME280;49715;42.386;20.434;2022-12-18T00:10:54;98171.47;;;7.08;72.22
63568;BME280;49715;42.386;20.434;2022-12-18T00:13:21;98170.09;;;7.02;72.48
63568;BME280;49715;42.386;20.434;2022-12-18T00:15:47;98181.09;;;7.07;72.28
63568;BME280;49715;42.386;20.434;2022-12-18T00:18:13;98182.19;;;7.05;72.31
63568;BME280;49715;42.386;20.434;2022-12-18T00:20:40;98178.94;;;7.01;72.11
63568;BME280;49715;42.386;20.434;2022-12-18T00:23:07;98189.19;;;7.04;72.10
63568;BME280;49715;42.386;20.434;2022-12-18T00:25:34;98194.66;;;7.01;72.10
63568;BME280;49715;42.386;20.434;2022-12-18T00:28:01;98191.06;;;7.02;72.03
63568;BME280;49715;42.386;20.434;2022-12-18T00:30:28;98194.88;;;6.98;72.13
63568;BME280;49715;42.386;20.434;2022-12-18T00:32:55;98204.94;;;7.04;71.93
63568;BME280;49715;42.386;20.434;2022-12-18T00:35:24;98220.88;;;7.01;71.87
63568;BME280;49715;42.386;20.434;2022-12-18T00:37:50;98214.16;;;6.97;71.97
63568;BME280;49715;42.386;20.434;2022-12-18T00:40:16;98208.31;;;6.93;71.83
63568;BME280;49715;42.386;20.434;2022-12-18T00:42:43;98214.06;;;6.99;71.85
63568;BME280;49715;42.386;20.434;2022-12-18T00:45:26;98222.84;;;6.97;71.91
63568;BME280;49715;42.386;20.434;2022-12-18T00:47:53;98226.34;;;6.98;72.02
63568;BME280;49715;42.386;20.434;2022-12-18T00:50:23;98222.84;;;6.97;72.23
63568;BME280;49715;42.386;20.434;2022-12-18T00:52:50;98225.16;;;7.02;71.85
63568;BME280;49715;42.386;20.434;2022-12-18T00:55:17;98230.63;;;6.99;71.68
63568;BME280;49715;42.386;20.434;2022-12-18T00:57:43;98248.16;;;6.99;71.46
63568;BME280;49715;42.386;20.434;2022-12-18T01:00:13;98237.22;;;7.05;71.58
63568;BME280;49715;42.386;20.434;2022-12-18T01:02:41;98236.38;;;7.04;71.53
63568;BME280;49715;42.386;20.434;2022-12-18T01:05:09;98246.53;;;7.09;71.55
63568;BME280;49715;42.386;20.434;2022-12-18T01:07:36;98249.16;;;7.09;71.34
63568;BME280;49715;42.386;20.434;2022-12-18T01:10:04;98262.16;;;7.10;71.46
63568;BME280;49715;42.386;20.434;2022-12-18T01:12:31;98249.88;;;7.11;71.39
63568;BME280;49715;42.386;20.434;2022-12-18T01:14:57;98243.19;;;7.07;71.55
63568;BME280;49715;42.386;20.434;2022-12-18T01:17:24;98249.34;;;7.18;71.39
63568;BME280;49715;42.386;20.434;2022-12-18T01:19:50;98260.34;;;7.23;71.24
63568;BME280;49715;42.386;20.434;2022-12-18T01:22:17;98258.34;;;7.27;71.24
63568;BME280;49715;42.386;20.434;2022-12-18T01:24:44;98266.50;;;7.35;71.00
63568;BME280;49715;42.386;20.434;2022-12-18T01:27:10;98258.63;;;7.35;70.94
63568;BME280;49715;42.386;20.434;2022-12-18T01:29:37;98264.16;;;7.43;71.07
63568;BME280;49715;42.386;20.434;2022-12-18T01:32:03;98267.50;;;7.45;71.03
63568;BME280;49715;42.386;20.434;2022-12-18T01:34:30;98274.09;;;7.51;70.81
63568;BME280;49715;42.386;20.434;2022-12-18T01:36:56;98280.19;;;7.52;70.87
63568;BME280;49715;42.386;20.434;2022-12-18T01:39:23;98289.16;;;7.60;70.77
63568;BME280;49715;42.386;20.434;2022-12-18T01:41:49;98283.81;;;7.62;70.45
63568;BME280;49715;42.386;20.434;2022-12-18T01:47:41;98289.47;;;7.68;70.24
63568;BME280;49715;42.386;20.434;2022-12-18T01:50:20;98286.84;;;7.68;70.36
63568;BME280;49715;42.386;20.434;2022-12-18T01:52:51;98289.84;;;7.75;70.27
63568;BME280;49715;42.386;20.434;2022-12-18T01:55:22;98294.38;;;7.73;70.31
63568;BME280;49715;42.386;20.434;2022-12-18T01:57:52;98293.28;;;7.75;70.42
63568;BME280;49715;42.386;20.434;2022-12-18T02:00:22;98291.41;;;7.78;70.25
63568;BME280;49715;42.386;20.434;2022-12-18T02:02:51;98310.78;;;7.88;70.14
63568;BME280;49715;42.386;20.434;2022-12-18T02:10:27;98322.50;;;7.95;69.60
63568;BME280;49715;42.386;20.434;2022-12-18T02:16:02;98327.88;;;7.93;69.39
63568;BME280;49715;42.386;20.434;2022-12-18T02:18:36;98320.34;;;7.89;69.58
63568;BME280;49715;42.386;20.434;2022-12-18T02:21:34;98334.28;;;7.89;69.15
63568;BME280;49715;42.386;20.434;2022-12-18T02:27:12;98340.66;;;7.74;69.41
63568;BME280;49715;42.386;20.434;2022-12-18T02:29:44;98335.84;;;7.68;69.56
63568;BME280;49715;42.386;20.434;2022-12-18T02:32:20;98345.28;;;7.70;69.75
63568;BME280;49715;42.386;20.434;2022-12-18T02:34:49;98348.97;;;7.68;69.35
63568;BME280;49715;42.386;20.434;2022-12-18T02:37:18;98342.13;;;7.65;69.59
63568;BME280;49715;42.386;20.434;2022-12-18T02:39:49;98345.97;;;7.61;69.51
63568;BME280;49715;42.386;20.434;2022-12-18T02:42:16;98340.28;;;7.55;69.84
63568;BME280;49715;42.386;20.434;2022-12-18T02:44:45;98345.34;;;7.58;69.77
63568;BME280;49715;42.386;20.434;2022-12-18T02:47:18;98348.59;;;7.61;69.65
63568;BME280;49715;42.386;20.434;2022-12-18T02:52:35;98355.38;;;7.64;69.55
63568;BME280;49715;42.386;20.434;2022-12-18T02:57:49;98342.78;;;7.69;69.58
63568;BME280;49715;42.386;20.434;2022-12-18T03:00:24;98353.44;;;7.79;69.40
63568;BME280;49715;42.386;20.434;2022-12-18T03:03:16;98350.50;;;7.83;69.37
63568;BME280;49715;42.386;20.434;2022-12-18T03:05:54;98357.31;;;7.86;69.18
63568;BME280;49715;42.386;20.434;2022-12-18T03:08:23;98357.72;;;7.80;68.43
63568;BME280;49715;42.386;20.434;2022-12-18T03:11:03;98353.13;;;7.83;69.04
63568;BME280;49715;42.386;20.434;2022-12-18T03:13:51;98376.75;;;7.83;68.68
63568;BME280;49715;42.386;20.434;2022-12-18T03:16:24;98371.69;;;7.80;68.77
63568;BME280;49715;42.386;20.434;2022-12-18T03:19:05;98376.22;;;7.78;68.82
63568;BME280;49715;42.386;20.434;2022-12-18T03:21:37;98376.09;;;7.80;68.74
63568;BME280;49715;42.386;20.434;2022-12-18T03:24:07;98370.25;;;7.76;68.65
63568;BME280;49715;42.386;20.434;2022-12-18T03:26:38;98378.13;;;7.76;68.86
63568;BME280;49715;42.386;20.434;2022-12-18T03:29:12;98381.69;;;7.75;68.77
63568;BME280;49715;42.386;20.434;2022-12-18T03:31:42;98393.00;;;7.75;68.81
63568;BME280;49715;42.386;20.434;2022-12-18T03:34:16;98393.00;;;7.75;68.80
63568;BME280;49715;42.386;20.434;2022-12-18T03:36:46;98395.56;;;7.77;68.90
63568;BME280;49715;42.386;20.434;2022-12-18T03:39:13;98398.06;;;7.79;68.97
63568;BME280;49715;42.386;20.434;2022-12-18T03:44:42;98410.84;;;7.83;69.16
63568;BME280;49715;42.386;20.434;2022-12-18T03:47:17;98424.50;;;7.88;68.74
63568;BME280;49715;42.386;20.434;2022-12-18T03:49:57;98413.59;;;7.82;68.48
63568;BME280;49715;42.386;20.434;2022-12-18T03:52:38;98420.13;;;7.76;68.52
63568;BME280;49715;42.386;20.434;2022-12-18T03:55:09;98431.16;;;7.68;68.22
63568;BME280;49715;42.386;20.434;2022-12-18T03:57:39;98427.38;;;7.60;68.22
63568;BME280;49715;42.386;20.434;2022-12-18T04:00:13;98430.88;;;7.47;68.24
63568;BME280;49715;42.386;20.434;2022-12-18T04:02:44;98444.19;;;7.44;67.95
63568;BME280;49715;42.386;20.434;2022-12-18T04:05:15;98445.66;;;7.36;68.33
63568;BME280;49715;42.386;20.434;2022-12-18T04:07:47;98443.34;;;7.31;68.23
63568;BME280;49715;42.386;20.434;2022-12-18T04:10:18;98444.81;;;7.35;68.62
63568;BME280;49715;42.386;20.434;2022-12-18T04:12:46;98459.09;;;7.31;68.04
63568;BME280;49715;42.386;20.434;2022-12-18T04:15:14;98453.22;;;7.28;68.41
63568;BME280;49715;42.386;20.434;2022-12-18T04:17:48;98467.38;;;7.25;68.07
63568;BME280;49715;42.386;20.434;2022-12-18T04:20:17;98471.75;;;7.12;67.79
63568;BME280;49715;42.386;20.434;2022-12-18T04:22:44;98485.81;;;7.11;68.17
63568;BME280;49715;42.386;20.434;2022-12-18T04:25:11;98494.28;;;7.02;68.20
63568;BME280;49715;42.386;20.434;2022-12-18T04:27:47;98486.31;;;6.90;68.39
63568;BME280;49715;42.386;20.434;2022-12-18T04:30:13;98504.97;;;6.86;68.32
63568;BME280;49715;42.386;20.434;2022-12-18T04:32:40;98501.09;;;6.79;68.12
63568;BME280;49715;42.386;20.434;2022-12-18T04:35:09;98494.13;;;6.65;68.05
63568;BME280;49715;42.386;20.434;2022-12-18T04:37:38;98499.34;;;6.65;68.42
63568;BME280;49715;42.386;20.434;2022-12-18T04:40:05;98496.69;;;6.52;67.79
63568;BME280;49715;42.386;20.434;2022-12-18T04:42:40;98503.28;;;6.58;68.28
63568;BME280;49715;42.386;20.434;2022-12-18T04:45:07;98491.75;;;6.48;68.22
63568;BME280;49715;42.386;20.434;2022-12-18T04:47:34;98511.97;;;6.45;68.14
63568;BME280;49715;42.386;20.434;2022-12-18T04:50:00;98509.41;;;6.44;68.23
63568;BME280;49715;42.386;20.434;2022-12-18T04:52:26;98518.63;;;6.37;68.37
63568;BME280;49715;42.386;20.434;2022-12-18T04:54:53;98520.50;;;6.35;68.15
63568;BME280;49715;42.386;20.434;2022-12-18T04:57:19;98532.94;;;6.31;68.12
63568;BME280;49715;42.386;20.434;2022-12-18T04:59:45;98535.97;;;6.25;68.17
63568;BME280;49715;42.386;20.434;2022-12-18T05:02:12;98532.13;;;6.16;68.17
63568;BME280;49715;42.386;20.434;2022-12-18T05:04:38;98528.75;;;6.14;68.75
63568;BME280;49715;42.386;20.434;2022-12-18T05:07:05;98535.97;;;6.25;68.99
63568;BME280;49715;42.386;20.434;2022-12-18T05:09:31;98540.81;;;6.31;68.55
63568;BME280;49715;42.386;20.434;2022-12-18T05:11:58;98545.94;;;6.33;68.73
63568;BME280;49715;42.386;20.434;2022-12-18T05:14:24;98545.94;;;6.33;68.42
63568;BME280;49715;42.386;20.434;2022-12-18T05:16:50;98556.88;;;6.39;68.29
63568;BME280;49715;42.386;20.434;2022-12-18T05:19:16;98557.44;;;6.44;68.13
63568;BME280;49715;42.386;20.434;2022-12-18T05:21:43;98557.13;;;6.49;68.16
63568;BME280;49715;42.386;20.434;2022-12-18T05:24:09;98552.63;;;6.51;68.14
63568;BME280;49715;42.386;20.434;2022-12-18T05:26:35;98561.56;;;6.61;67.94
63568;BME280;49715;42.386;20.434;2022-12-18T05:29:02;98575.94;;;6.68;67.74
63568;BME280;49715;42.386;20.434;2022-12-18T05:31:28;98572.75;;;6.78;67.75
63568;BME280;49715;42.386;20.434;2022-12-18T05:33:55;98569.28;;;6.77;67.66
63568;BME280;49715;42.386;20.434;2022-12-18T05:36:21;98577.50;;;6.85;67.71
63568;BME280;49715;42.386;20.434;2022-12-18T05:38:47;98583.59;;;6.86;67.62
63568;BME280;49715;42.386;20.434;2022-12-18T05:41:14;98589.38;;;6.91;67.34
63568;BME280;49715;42.386;20.434;2022-12-18T05:43:40;98595.75;;;6.87;67.06
63568;BME280;49715;42.386;20.434;2022-12-18T05:46:10;98596.88;;;6.83;66.88
63568;BME280;49715;42.386;20.434;2022-12-18T05:48:37;98596.31;;;6.78;67.47
63568;BME280;49715;42.386;20.434;2022-12-18T05:51:09;98601.50;;;6.79;67.21
63568;BME280;49715;42.386;20.434;2022-12-18T05:53:36;98604.19;;;6.78;67.23
63568;BME280;49715;42.386;20.434;2022-12-18T05:56:05;98614.59;;;6.79;67.11
63568;BME280;49715;42.386;20.434;2022-12-18T05:58:32;98619.63;;;6.82;67.15
63568;BME280;49715;42.386;20.434;2022-12-18T06:01:10;98616.66;;;6.74;66.99
63568;BME280;49715;42.386;20.434;2022-12-18T06:03:37;98614.03;;;6.74;66.87
63568;BME280;49715;42.386;20.434;2022-12-18T06:06:04;98620.41;;;6.70;66.99
63568;BME280;49715;42.386;20.434;2022-12-18T06:08:30;98623.88;;;6.70;67.25
63568;BME280;49715;42.386;20.434;2022-12-18T06:10:57;98622.19;;;6.69;66.92
63568;BME280;49715;42.386;20.434;2022-12-18T06:13:23;98630.69;;;6.73;66.96
63568;BME280;49715;42.386;20.434;2022-12-18T06:15:49;98649.03;;;6.73;66.89
63568;BME280;49715;42.386;20.434;2022-12-18T06:18:16;98651.66;;;6.73;66.79
63568;BME280;49715;42.386;20.434;2022-12-18T06:20:42;98647.63;;;6.67;66.67
63568;BME280;49715;42.386;20.434;2022-12-18T06:23:08;98654.25;;;6.73;66.80
63568;BME280;49715;42.386;20.434;2022-12-18T06:25:39;98658.38;;;6.77;66.83
63568;BME280;49715;42.386;20.434;2022-12-18T06:28:05;98664.28;;;6.81;66.66
63568;BME280;49715;42.386;20.434;2022-12-18T06:30:32;98666.91;;;6.81;66.26
63568;BME280;49715;42.386;20.434;2022-12-18T06:32:58;98672.03;;;6.82;66.46
63568;BME280;49715;42.386;20.434;2022-12-18T06:35:24;98676.94;;;6.74;66.06
63568;BME280;49715;42.386;20.434;2022-12-18T06:37:51;98678.06;;;6.70;66.63
63568;BME280;49715;42.386;20.434;2022-12-18T06:40:17;98686.94;;;6.67;66.77
63568;BME280;49715;42.386;20.434;2022-12-18T06:42:43;98689.19;;;6.74;66.57
63568;BME280;49715;42.386;20.434;2022-12-18T06:45:10;98690.66;;;6.78;66.48
63568;BME280;49715;42.386;20.434;2022-12-18T06:47:37;98700.41;;;6.76;65.71
63568;BME280;49715;42.386;20.434;2022-12-18T06:50:03;98702.34;;;6.86;66.43
63568;BME280;49715;42.386;20.434;2022-12-18T06:52:31;98700.69;;;6.85;66.17
63568;BME280;49715;42.386;20.434;2022-12-18T06:54:58;98706.38;;;6.92;66.25
63568;BME280;49715;42.386;20.434;2022-12-18T06:57:24;98708.81;;;6.95;65.97
63568;BME280;49715;42.386;20.434;2022-12-18T06:59:51;98718.91;;;7.01;66.02
63568;BME280;49715;42.386;20.434;2022-12-18T07:02:17;98716.16;;;7.03;66.13
63568;BME280;49715;42.386;20.434;2022-12-18T07:04:43;98709.91;;;7.05;65.89
63568;BME280;49715;42.386;20.434;2022-12-18T07:07:10;98719.03;;;7.12;66.00
63568;BME280;49715;42.386;20.434;2022-12-18T07:09:36;98719.91;;;7.13;65.92
63568;BME280;49715;42.386;20.434;2022-12-18T07:12:03;98724.66;;;7.20;65.82
63568;BME280;49715;42.386;20.434;2022-12-18T07:14:31;98729.59;;;7.25;65.83
63568;BME280;49715;42.386;20.434;2022-12-18T07:16:57;98731.28;;;7.26;65.94
63568;BME280;49715;42.386;20.434;2022-12-18T07:19:24;98730.81;;;7.34;65.69
63568;BME280;49715;42.386;20.434;2022-12-18T07:21:51;98739.34;;;7.37;65.66
63568;BME280;49715;42.386;20.434;2022-12-18T07:24:17;98754.78;;;7.42;65.82
63568;BME280;49715;42.386;20.434;2022-12-18T07:26:46;98756.53;;;7.41;65.70
63568;BME280;49715;42.386;20.434;2022-12-18T07:29:12;98754.66;;;7.43;65.50
63568;BME280;49715;42.386;20.434;2022-12-18T07:31:39;98757.69;;;7.37;64.63
63568;BME280;49715;42.386;20.434;2022-12-18T07:34:10;98754.56;;;7.45;65.72
63568;BME280;49715;42.386;20.434;2022-12-18T07:36:36;98757.00;;;7.48;65.29
63568;BME280;49715;42.386;20.434;2022-12-18T07:39:03;98766.13;;;7.55;65.18
63568;BME280;49715;42.386;20.434;2022-12-18T07:41:29;98756.69;;;7.53;65.34
63568;BME280;49715;42.386;20.434;2022-12-18T07:43:56;98765.13;;;7.58;65.32
63568;BME280;49715;42.386;20.434;2022-12-18T07:46:22;98772.88;;;7.59;65.04
63568;BME280;49715;42.386;20.434;2022-12-18T07:48:49;98774.56;;;7.60;64.94
63568;BME280;49715;42.386;20.434;2022-12-18T07:51:16;98773.81;;;7.58;65.08
63568;BME280;49715;42.386;20.434;2022-12-18T07:53:42;98776.19;;;7.48;64.99
63568;BME280;49715;42.386;20.434;2022-12-18T07:56:10;98783.13;;;7.49;65.19
63568;BME280;49715;42.386;20.434;2022-12-18T07:58:38;98792.13;;;7.45;65.32
63568;BME280;49715;42.386;20.434;2022-12-18T08:01:05;98784.34;;;7.44;65.50
63568;BME280;49715;42.386;20.434;2022-12-18T08:03:34;98788.38;;;7.49;65.36
63568;BME280;49715;42.386;20.434;2022-12-18T08:06:03;98795.09;;;7.54;65.52
63568;BME280;49715;42.386;20.434;2022-12-18T08:08:31;98791.34;;;7.58;65.68
63568;BME280;49715;42.386;20.434;2022-12-18T08:10:57;98797.97;;;7.63;65.96
63568;BME280;49715;42.386;20.434;2022-12-18T08:13:25;98801.16;;;7.68;65.66
63568;BME280;49715;42.386;20.434;2022-12-18T08:16:03;98796.75;;;7.69;65.47
63568;BME280;49715;42.386;20.434;2022-12-18T08:18:34;98801.03;;;7.70;65.65
63568;BME280;49715;42.386;20.434;2022-12-18T08:21:15;98792.44;;;7.68;65.31
63568;BME280;49715;42.386;20.434;2022-12-18T08:23:42;98805.69;;;7.79;65.23
63568;BME280;49715;42.386;20.434;2022-12-18T08:26:10;98803.63;;;7.84;65.05
63568;BME280;49715;42.386;20.434;2022-12-18T08:28:37;98814.13;;;7.84;64.72
63568;BME280;49715;42.386;20.434;2022-12-18T08:31:04;98812.56;;;7.82;64.83
63568;BME280;49715;42.386;20.434;2022-12-18T08:33:32;98805.59;;;7.81;64.55
63568;BME280;49715;42.386;20.434;2022-12-18T08:35:59;98812.00;;;7.77;64.88
63568;BME280;49715;42.386;20.434;2022-12-18T08:38:25;98814.38;;;7.67;64.17
63568;BME280;49715;42.386;20.434;2022-12-18T08:41:06;98825.06;;;7.64;64.70
63568;BME280;49715;42.386;20.434;2022-12-18T08:43:33;98824.94;;;7.65;64.82
63568;BME280;49715;42.386;20.434;2022-12-18T08:46:20;98835.44;;;7.65;64.59
63568;BME280;49715;42.386;20.434;2022-12-18T08:48:47;98832.28;;;7.60;64.49
63568;BME280;49715;42.386;20.434;2022-12-18T08:51:15;98835.78;;;7.46;62.76
63568;BME280;49715;42.386;20.434;2022-12-18T08:53:42;98835.03;;;7.44;64.26
63568;BME280;49715;42.386;20.434;2022-12-18T08:56:08;98835.16;;;7.43;64.60
63568;BME280;49715;42.386;20.434;2022-12-18T08:58:35;98844.13;;;7.39;64.34
63568;BME280;49715;42.386;20.434;2022-12-18T09:01:03;98845.25;;;7.35;64.37
63568;BME280;49715;42.386;20.434;2022-12-18T09:03:29;98834.06;;;7.18;64.00
63568;BME280;49715;42.386;20.434;2022-12-18T09:05:56;98843.22;;;7.11;64.26
63568;BME280;49715;42.386;20.434;2022-12-18T09:08:22;98842.94;;;7.02;64.37
63568;BME280;49715;42.386;20.434;2022-12-18T09:10:50;98834.22;;;7.01;64.71
63568;BME280;49715;42.386;20.434;2022-12-18T09:13:18;98838.19;;;7.08;65.04
63568;BME280;49715;42.386;20.434;2022-12-18T09:15:47;98835.00;;;7.17;64.88
63568;BME280;49715;42.386;20.434;2022-12-18T09:18:16;98840.88;;;7.21;64.53
63568;BME280;49715;42.386;20.434;2022-12-18T09:20:43;98839.75;;;7.25;64.39
63568;BME280;49715;42.386;20.434;2022-12-18T09:23:10;98841.06;;;7.18;64.08
63568;BME280;49715;42.386;20.434;2022-12-18T09:25:37;98836.69;;;7.18;64.32
63568;BME280;49715;42.386;20.434;2022-12-18T09:28:06;98836.69;;;7.18;63.88
63568;BME280;49715;42.386;20.434;2022-12-18T09:30:40;98833.84;;;7.21;64.06
63568;BME280;49715;42.386;20.434;2022-12-18T09:33:07;98839.66;;;7.27;64.41
63568;BME280;49715;42.386;20.434;2022-12-18T09:35:36;98841.81;;;7.34;64.48
63568;BME280;49715;42.386;20.434;2022-12-18T09:38:03;98833.47;;;7.42;64.04
63568;BME280;49715;42.386;20.434;2022-12-18T09:40:39;98830.84;;;7.42;63.88
63568;BME280;49715;42.386;20.434;2022-12-18T09:43:15;98831.94;;;7.52;64.03
63568;BME280;49715;42.386;20.434;2022-12-18T09:45:44;98833.22;;;7.59;64.09
63568;BME280;49715;42.386;20.434;2022-12-18T09:48:21;98833.59;;;7.67;63.82
63568;BME280;49715;42.386;20.434;2022-12-18T09:50:50;98829.63;;;7.74;63.69
63568;BME280;49715;42.386;20.434;2022-12-18T09:53:21;98825.84;;;7.79;63.49
63568;BME280;49715;42.386;20.434;2022-12-18T09:55:49;98810.53;;;7.85;63.37
63568;BME280;49715;42.386;20.434;2022-12-18T09:58:40;98822.47;;;7.91;62.99
63568;BME280;49715;42.386;20.434;2022-12-18T10:01:27;98824.88;;;7.94;62.85
63568;BME280;49715;42.386;20.434;2022-12-18T10:03:54;98818.47;;;7.98;63.03
63568;BME280;49715;42.386;20.434;2022-12-18T10:09:13;98824.06;;;8.06;62.76
63568;BME280;49715;42.386;20.434;2022-12-18T10:14:43;98817.53;;;7.99;62.50
63568;BME280;49715;42.386;20.434;2022-12-18T10:25:48;98827.59;;;8.32;62.24
63568;BME280;49715;42.386;20.434;2022-12-18T10:28:18;98823.63;;;8.39;62.41
63568;BME280;49715;42.386;20.434;2022-12-18T10:30:47;98804.22;;;8.42;62.48
63568;BME280;49715;42.386;20.434;2022-12-18T10:33:19;98817.97;;;8.58;62.69
63568;BME280;49715;42.386;20.434;2022-12-18T10:35:48;98808.63;;;8.67;62.28
63568;BME280;49715;42.386;20.434;2022-12-18T10:38:23;98807.16;;;8.63;61.58
63568;BME280;49715;42.386;20.434;2022-12-18T10:41:05;98818.63;;;8.62;61.04
63568;BME280;49715;42.386;20.434;2022-12-18T10:46:11;98820.69;;;8.44;61.28
63568;BME280;49715;42.386;20.434;2022-12-18T10:51:40;98813.13;;;8.39;59.52
63568;BME280;49715;42.386;20.434;2022-12-18T10:54:15;98808.38;;;8.32;60.96
63568;BME280;49715;42.386;20.434;2022-12-18T10:56:42;98809.63;;;8.26;60.90
63568;BME280;49715;42.386;20.434;2022-12-18T10:59:11;98813.16;;;8.12;60.94
63568;BME280;49715;42.386;20.434;2022-12-18T11:04:25;98812.50;;;7.96;61.25
63568;BME280;49715;42.386;20.434;2022-12-18T11:07:01;98821.41;;;7.93;60.89
63568;BME280;49715;42.386;20.434;2022-12-18T11:09:31;98818.34;;;7.87;59.77
63568;BME280;49715;42.386;20.434;2022-12-18T11:12:00;98828.56;;;8.04;61.44
63568;BME280;49715;42.386;20.434;2022-12-18T11:14:30;98825.34;;;8.13;61.15
63568;BME280;49715;42.386;20.434;2022-12-18T11:16:58;98844.88;;;8.09;60.66
63568;BME280;49715;42.386;20.434;2022-12-18T11:19:38;98840.66;;;8.07;60.78
63568;BME280;49715;42.386;20.434;2022-12-18T11:22:24;98833.50;;;7.96;60.46
63568;BME280;49715;42.386;20.434;2022-12-18T11:27:20;98832.91;;;7.78;60.80
63568;BME280;49715;42.386;20.434;2022-12-18T11:29:49;98839.81;;;7.79;60.65
63568;BME280;49715;42.386;20.434;2022-12-18T11:35:01;98844.13;;;7.80;60.82
63568;BME280;49715;42.386;20.434;2022-12-18T11:37:29;98846.56;;;7.83;60.70
63568;BME280;49715;42.386;20.434;2022-12-18T11:40:03;98847.09;;;7.88;60.84
63568;BME280;49715;42.386;20.434;2022-12-18T11:42:44;98849.38;;;7.80;60.22
63568;BME280;49715;42.386;20.434;2022-12-18T11:48:22;98848.50;;;7.67;59.50
63568;BME280;49715;42.386;20.434;2022-12-18T11:50:51;98844.94;;;7.68;60.63
63568;BME280;49715;42.386;20.434;2022-12-18T11:53:20;98838.72;;;7.69;60.38
63568;BME280;49715;42.386;20.434;2022-12-18T11:56:04;98825.59;;;7.69;60.22
63568;BME280;49715;42.386;20.434;2022-12-18T12:06:54;98839.22;;;7.88;60.50
63568;BME280;49715;42.386;20.434;2022-12-18T12:09:35;98842.22;;;7.96;60.55
63568;BME280;49715;42.386;20.434;2022-12-18T12:32:05;98834.25;;;8.38;59.68
63568;BME280;49715;42.386;20.434;2022-12-18T12:40:26;98841.44;;;8.34;59.41
63568;BME280;49715;42.386;20.434;2022-12-18T12:42:56;98842.97;;;8.38;59.74
63568;BME280;49715;42.386;20.434;2022-12-18T12:51:09;98848.06;;;8.27;59.11
63568;BME280;49715;42.386;20.434;2022-12-18T12:53:37;98846.88;;;8.18;59.43
63568;BME280;49715;42.386;20.434;2022-12-18T12:56:05;98845.81;;;8.08;59.40
63568;BME280;49715;42.386;20.434;2022-12-18T13:04:27;98845.03;;;7.93;59.52
63568;BME280;49715;42.386;20.434;2022-12-18T13:07:10;98840.63;;;7.94;59.62
63568;BME280;49715;42.386;20.434;2022-12-18T13:13:18;98845.69;;;7.97;58.04
63568;BME280;49715;42.386;20.434;2022-12-18T13:16:06;98853.00;;;7.92;59.13
63568;BME280;49715;42.386;20.434;2022-12-18T13:18:34;98851.09;;;7.81;59.39
63568;BME280;49715;42.386;20.434;2022-12-18T13:21:07;98853.72;;;7.81;59.41
63568;BME280;49715;42.386;20.434;2022-12-18T13:23:39;98855.16;;;7.85;59.50
63568;BME280;49715;42.386;20.434;2022-12-18T13:31:02;98857.44;;;7.91;59.26
63568;BME280;49715;42.386;20.434;2022-12-18T13:38:46;98866.22;;;7.90;59.10
63568;BME280;49715;42.386;20.434;2022-12-18T13:43:49;98869.75;;;7.77;58.63
63568;BME280;49715;42.386;20.434;2022-12-18T13:46:23;98866.94;;;7.65;57.98
63568;BME280;49715;42.386;20.434;2022-12-18T13:49:03;98866.75;;;7.68;59.17
63568;BME280;49715;42.386;20.434;2022-12-18T13:51:33;98854.88;;;7.63;59.24
63568;BME280;49715;42.386;20.434;2022-12-18T13:54:02;98858.59;;;7.73;59.35
63568;BME280;49715;42.386;20.434;2022-12-18T13:56:31;98864.38;;;7.78;59.22
63568;BME280;49715;42.386;20.434;2022-12-18T14:01:48;98862.41;;;7.82;59.09
63568;BME280;49715;42.386;20.434;2022-12-18T14:04:22;98869.53;;;7.80;59.16
63568;BME280;49715;42.386;20.434;2022-12-18T14:06:52;98871.53;;;7.76;58.74
63568;BME280;49715;42.386;20.434;2022-12-18T14:09:26;98863.94;;;7.71;58.96
63568;BME280;49715;42.386;20.434;2022-12-18T14:11:53;98857.28;;;7.66;59.07
63568;BME280;49715;42.386;20.434;2022-12-18T14:14:48;98856.25;;;7.68;59.14
63568;BME280;49715;42.386;20.434;2022-12-18T14:17:17;98858.06;;;7.68;59.08
63568;BME280;49715;42.386;20.434;2022-12-18T14:19:49;98864.69;;;7.73;59.02
63568;BME280;49715;42.386;20.434;2022-12-18T14:22:20;98871.06;;;7.69;58.79
63568;BME280;49715;42.386;20.434;2022-12-18T14:25:25;98874.09;;;7.63;58.67
63568;BME280;49715;42.386;20.434;2022-12-18T14:30:31;98876.59;;;7.65;58.76
63568;BME280;49715;42.386;20.434;2022-12-18T14:33:05;98878.28;;;7.66;58.88
63568;BME280;49715;42.386;20.434;2022-12-18T14:35:37;98880.91;;;7.66;58.92
63568;BME280;49715;42.386;20.434;2022-12-18T14:40:43;98886.47;;;7.61;58.72
63568;BME280;49715;42.386;20.434;2022-12-18T14:43:10;98897.97;;;7.59;58.39
63568;BME280;49715;42.386;20.434;2022-12-18T14:45:40;98890.41;;;7.54;58.50
63568;BME280;49715;42.386;20.434;2022-12-18T14:48:19;98892.47;;;7.49;58.41
63568;BME280;49715;42.386;20.434;2022-12-18T14:50:55;98890.69;;;7.49;58.47
63568;BME280;49715;42.386;20.434;2022-12-18T14:53:34;98897.44;;;7.54;58.63
63568;BME280;49715;42.386;20.434;2022-12-18T14:56:02;98903.81;;;7.49;58.48
63568;BME280;49715;42.386;20.434;2022-12-18T14:58:29;98890.03;;;7.46;58.52
63568;BME280;49715;42.386;20.434;2022-12-18T15:00:56;98905.88;;;7.44;58.37
63568;BME280;49715;42.386;20.434;2022-12-18T15:03:22;98901.09;;;7.37;58.37
63568;BME280;49715;42.386;20.434;2022-12-18T15:05:49;98902.03;;;7.36;58.37
63568;BME280;49715;42.386;20.434;2022-12-18T15:08:30;98906.81;;;7.29;58.40
63568;BME280;49715;42.386;20.434;2022-12-18T15:10:57;98905.31;;;7.25;58.41
63568;BME280;49715;42.386;20.434;2022-12-18T15:13:24;98916.75;;;7.24;58.03
63568;BME280;49715;42.386;20.434;2022-12-18T15:15:51;98908.03;;;7.09;55.86
63568;BME280;49715;42.386;20.434;2022-12-18T15:18:21;98912.44;;;7.09;58.10